createdAt,value
2022-11-27T00:00:12.579Z,2.00
2022-11-27T00:01:16.168Z,2.50
2022-11-27T00:02:19.601Z,2.57
2022-11-27T00:03:23.316Z,2.00
2022-11-27T00:04:26.673Z,2.00
2022-11-27T00:05:30.141Z,2.00
2022-11-27T00:06:33.727Z,1.57
2022-11-27T00:07:37.243Z,2.00
2022-11-27T00:08:40.702Z,2.43
2022-11-27T00:09:43.889Z,2.57
2022-11-27T00:10:47.366Z,2.00
2022-11-27T00:11:50.453Z,2.43
2022-11-27T00:12:53.728Z,3.00
2022-11-27T00:13:57.007Z,2.71
2022-11-27T00:15:00.199Z,2.57
2022-11-27T00:16:03.635Z,2.29
2022-11-27T00:17:06.565Z,2.43
2022-11-27T00:18:09.948Z,2.43
2022-11-27T00:19:13.255Z,2.00
2022-11-27T00:20:16.311Z,2.29
2022-11-27T00:21:19.805Z,2.33
2022-11-27T00:22:22.987Z,2.29
2022-11-27T00:23:26.675Z,2.43
2022-11-27T00:24:29.865Z,2.29
2022-11-27T00:25:33.345Z,2.00
2022-11-27T00:26:38.341Z,2.00
2022-11-27T00:27:41.037Z,2.12
2022-11-27T00:28:44.321Z,2.00
2022-11-27T00:29:47.507Z,1.57
2022-11-27T00:30:51.245Z,1.86
2022-11-27T00:31:54.688Z,1.43
2022-11-27T00:32:58.093Z,2.00
2022-11-27T00:34:01.261Z,1.57
2022-11-27T00:35:04.700Z,2.33
2022-11-27T00:36:08.130Z,3.00
2022-11-27T00:37:11.930Z,3.00
2022-11-27T00:38:15.112Z,3.00
2022-11-27T00:39:18.290Z,2.57
2022-11-27T00:40:21.468Z,2.17
2022-11-27T00:41:24.961Z,2.71
2022-11-27T00:42:28.670Z,2.57
2022-11-27T00:43:43.011Z,2.86
2022-11-27T00:44:36.800Z,3.00
2022-11-27T00:45:39.936Z,3.00
2022-11-27T00:46:43.364Z,3.00
2022-11-27T00:47:46.660Z,2.86
2022-11-27T00:48:49.801Z,3.57
2022-11-27T00:49:52.877Z,2.71
2022-11-27T00:50:55.957Z,3.00
2022-11-27T00:51:59.384Z,3.00
2022-11-27T00:53:02.417Z,3.14
2022-11-27T00:54:05.598Z,2.14
2022-11-27T00:55:08.907Z,3.00
2022-11-27T00:56:12.167Z,3.00
2022-11-27T00:57:15.248Z,3.00
2022-11-27T00:58:18.434Z,3.43
2022-11-27T00:59:21.719Z,3.43
2022-11-27T01:00:25.095Z,3.00
2022-11-27T01:01:28.654Z,3.43
2022-11-27T01:02:31.836Z,3.57
2022-11-27T01:03:35.360Z,3.00
2022-11-27T01:04:39.050Z,3.14
2022-11-27T01:05:42.549Z,3.00
2022-11-27T01:06:45.940Z,2.86
2022-11-27T01:07:49.052Z,3.00
2022-11-27T01:08:52.478Z,3.00
2022-11-27T01:09:55.590Z,2.57
2022-11-27T01:10:58.771Z,2.71
2022-11-27T01:12:02.043Z,2.57
2022-11-27T01:13:05.645Z,3.33
2022-11-27T01:14:08.933Z,4.00
2022-11-27T01:15:12.208Z,4.00
2022-11-27T01:16:16.256Z,3.57
2022-11-27T01:17:19.606Z,3.87
2022-11-27T01:18:22.782Z,3.86
2022-11-27T01:19:26.275Z,4.43
2022-11-27T01:20:29.244Z,4.14
2022-11-27T01:21:32.636Z,3.33
2022-11-27T01:22:36.627Z,3.14
2022-11-27T01:23:40.290Z,3.25
2022-11-27T01:24:44.423Z,4.00
2022-11-27T01:25:47.728Z,3.12
2022-11-27T01:26:51.511Z,2.71
2022-11-27T01:27:54.905Z,3.00
2022-11-27T01:28:58.178Z,2.33
2022-11-27T01:30:01.367Z,3.29
2022-11-27T01:31:04.957Z,2.43
2022-11-27T01:32:08.744Z,3.00
2022-11-27T01:33:11.943Z,4.00
2022-11-27T01:34:15.118Z,3.57
2022-11-27T01:35:18.674Z,2.86
2022-11-27T01:36:21.890Z,4.00
2022-11-27T01:37:25.575Z,3.57
2022-11-27T01:38:29.094Z,2.71
2022-11-27T01:39:32.257Z,3.00
2022-11-27T01:40:35.832Z,2.29
2022-11-27T01:41:39.127Z,3.00
2022-11-27T01:42:42.205Z,3.00
2022-11-27T01:43:45.497Z,3.00
2022-11-27T01:44:48.572Z,3.00
2022-11-27T01:45:52.166Z,2.67
2022-11-27T01:46:56.094Z,2.00
2022-11-27T01:47:59.248Z,3.00
2022-11-27T01:49:03.248Z,3.67
2022-11-27T01:50:06.486Z,2.75
2022-11-27T01:51:09.419Z,2.00
2022-11-27T01:52:12.938Z,2.43
2022-11-27T01:53:16.582Z,3.43
2022-11-27T01:54:19.770Z,3.50
2022-11-27T01:55:23.056Z,3.00
2022-11-27T01:56:26.877Z,2.57
2022-11-27T01:57:29.945Z,2.62
2022-11-27T01:58:33.030Z,3.14
2022-11-27T01:59:36.096Z,4.00
2022-11-27T02:00:39.772Z,3.71
2022-11-27T02:01:42.814Z,3.00
2022-11-27T02:02:46.619Z,3.43
2022-11-27T02:03:50.147Z,4.00
2022-11-27T02:04:53.520Z,4.00
2022-11-27T02:05:56.307Z,3.67
2022-11-27T02:06:59.392Z,3.17
2022-11-27T02:08:02.566Z,3.29
2022-11-27T02:09:05.749Z,3.57
2022-11-27T02:10:08.827Z,3.57
2022-11-27T02:11:11.808Z,2.43
2022-11-27T02:12:15.191Z,3.00
2022-11-27T02:13:18.499Z,3.00
2022-11-27T02:14:22.480Z,3.67
2022-11-27T02:15:26.411Z,3.00
2022-11-27T02:16:30.133Z,3.00
2022-11-27T02:17:33.249Z,3.00
2022-11-27T02:18:37.140Z,3.29
2022-11-27T02:19:40.032Z,4.00
2022-11-27T02:20:43.106Z,3.67
2022-11-27T02:21:46.898Z,3.00
2022-11-27T02:22:50.227Z,2.57
2022-11-27T02:23:53.172Z,2.71
2022-11-27T02:24:56.654Z,3.00
2022-11-27T02:26:00.133Z,3.00
2022-11-27T02:27:03.523Z,3.00
2022-11-27T02:28:07.413Z,3.57
2022-11-27T02:29:10.505Z,3.43
2022-11-27T02:30:13.780Z,4.00
2022-11-27T02:31:17.360Z,4.00
2022-11-27T02:32:20.570Z,3.14
2022-11-27T02:33:24.350Z,3.14
2022-11-27T02:34:28.130Z,3.57
2022-11-27T02:35:31.549Z,4.00
2022-11-27T02:36:34.925Z,4.43
2022-11-27T02:37:38.407Z,4.00
2022-11-27T02:38:41.577Z,4.00
2022-11-27T02:39:44.676Z,2.57
2022-11-27T02:40:48.384Z,2.86
2022-11-27T02:41:51.759Z,3.50
2022-11-27T02:42:55.362Z,2.57
2022-11-27T02:43:58.344Z,3.43
2022-11-27T02:45:01.662Z,3.67
2022-11-27T02:46:04.825Z,3.86
2022-11-27T02:47:08.696Z,4.00
2022-11-27T02:48:11.880Z,3.86
2022-11-27T02:49:15.979Z,3.83
2022-11-27T02:50:19.157Z,4.00
2022-11-27T02:51:22.469Z,3.33
2022-11-27T02:52:25.923Z,4.00
2022-11-27T02:53:29.318Z,4.00
2022-11-27T02:54:33.508Z,4.43
2022-11-27T02:55:36.517Z,4.00
2022-11-27T02:56:40.490Z,4.00
2022-11-27T02:57:43.879Z,3.87
2022-11-27T02:58:47.179Z,3.43
2022-11-27T02:59:50.753Z,4.33
2022-11-27T03:00:54.241Z,4.57
2022-11-27T03:01:57.865Z,4.43
2022-11-27T03:03:01.065Z,5.00
2022-11-27T03:04:04.774Z,5.00
2022-11-27T03:05:08.715Z,5.00
2022-11-27T03:06:12.611Z,4.44
2022-11-27T03:07:16.264Z,3.57
2022-11-27T03:08:19.093Z,4.00
2022-11-27T03:09:22.871Z,4.00
2022-11-27T03:10:26.874Z,4.12
2022-11-27T03:11:30.352Z,4.50
2022-11-27T03:12:33.455Z,4.71
2022-11-27T03:13:36.637Z,4.57
2022-11-27T03:14:40.632Z,4.43
2022-11-27T03:15:44.401Z,4.75
2022-11-27T03:16:51.953Z,4.12
2022-11-27T03:17:55.191Z,4.00
2022-11-27T03:18:58.674Z,3.71
2022-11-27T03:20:02.188Z,5.00
2022-11-27T03:21:04.916Z,5.57
2022-11-27T03:22:07.562Z,5.00
2022-11-27T03:23:10.161Z,4.33
2022-11-27T03:24:12.742Z,5.00
2022-11-27T03:25:15.466Z,4.83
2022-11-27T03:26:18.417Z,5.33
2022-11-27T03:27:21.301Z,5.57
2022-11-27T03:28:24.169Z,5.00
2022-11-27T03:29:27.326Z,5.00
2022-11-27T03:30:30.152Z,5.00
2022-11-27T03:31:33.165Z,4.57
2022-11-27T03:32:36.055Z,6.00
2022-11-27T03:33:38.952Z,6.00
2022-11-27T03:34:42.130Z,6.00
2022-11-27T03:35:45.014Z,5.43
2022-11-27T03:36:47.942Z,5.67
2022-11-27T03:37:50.816Z,5.14
2022-11-27T03:38:53.637Z,4.00
2022-11-27T03:39:56.267Z,5.00
2022-11-27T03:40:58.876Z,5.00
2022-11-27T03:42:01.540Z,5.57
2022-11-27T03:43:04.251Z,5.33
2022-11-27T03:44:07.100Z,5.83
2022-11-27T03:45:09.958Z,5.00
2022-11-27T03:46:12.855Z,5.33
2022-11-27T03:47:15.768Z,4.50
2022-11-27T03:48:18.727Z,4.43
2022-11-27T03:49:21.546Z,5.00
2022-11-27T03:50:24.395Z,4.33
2022-11-27T03:51:27.244Z,4.83
2022-11-27T03:52:30.237Z,4.57
2022-11-27T03:53:33.198Z,4.33
2022-11-27T03:54:36.070Z,5.33
2022-11-27T03:55:38.830Z,4.00
2022-11-27T03:56:41.854Z,4.83
2022-11-27T03:57:44.723Z,4.67
2022-11-27T03:58:47.493Z,5.00
2022-11-27T03:59:50.431Z,5.67
2022-11-27T04:00:53.312Z,5.00
2022-11-27T04:01:56.067Z,4.14
2022-11-27T04:02:59.038Z,3.33
2022-11-27T04:04:01.937Z,3.50
2022-11-27T04:05:04.707Z,4.00
2022-11-27T04:06:07.236Z,4.67
2022-11-27T04:07:09.987Z,4.33
2022-11-27T04:08:12.862Z,4.33
2022-11-27T04:09:15.488Z,5.00
2022-11-27T04:10:18.035Z,4.67
2022-11-27T04:11:20.535Z,3.67
2022-11-27T04:12:23.326Z,4.00
2022-11-27T04:13:26.244Z,4.00
2022-11-27T04:14:29.154Z,3.86
2022-11-27T04:15:33.074Z,4.00
2022-11-27T04:16:35.993Z,3.86
2022-11-27T04:17:38.949Z,4.00
2022-11-27T04:18:42.003Z,4.00
2022-11-27T04:19:44.818Z,4.00
2022-11-27T04:20:47.628Z,4.00
2022-11-27T04:21:50.496Z,4.00
2022-11-27T04:22:53.295Z,4.00
2022-11-27T04:23:56.087Z,3.83
2022-11-27T04:24:59.125Z,4.00
2022-11-27T04:26:01.767Z,4.00
2022-11-27T04:27:04.313Z,4.33
2022-11-27T04:28:08.073Z,4.00
2022-11-27T04:29:11.110Z,4.57
2022-11-27T04:30:14.065Z,3.86
2022-11-27T04:31:16.963Z,3.57
2022-11-27T04:32:19.914Z,3.67
2022-11-27T04:33:22.794Z,4.67
2022-11-27T04:34:25.598Z,4.00
2022-11-27T04:35:28.487Z,4.00
2022-11-27T04:36:34.718Z,3.83
2022-11-27T04:37:35.395Z,4.43
2022-11-27T04:38:37.921Z,4.29
2022-11-27T04:39:41.013Z,4.00
2022-11-27T04:40:43.914Z,4.00
2022-11-27T04:41:46.879Z,4.00
2022-11-27T04:42:49.798Z,4.00
2022-11-27T04:43:52.534Z,4.00
2022-11-27T04:44:55.448Z,4.00
2022-11-27T04:45:58.055Z,4.00
2022-11-27T04:47:00.686Z,3.33
2022-11-27T04:48:03.415Z,3.33
2022-11-27T04:49:05.976Z,4.33
2022-11-27T04:50:08.705Z,3.83
2022-11-27T04:51:11.286Z,3.67
2022-11-27T04:52:13.981Z,4.33
2022-11-27T04:53:16.687Z,3.50
2022-11-27T04:54:19.403Z,4.33
2022-11-27T04:55:22.139Z,4.67
2022-11-27T04:56:24.804Z,4.00
2022-11-27T04:57:27.460Z,4.00
2022-11-27T04:58:30.052Z,4.67
2022-11-27T04:59:32.682Z,5.00
2022-11-27T05:00:35.457Z,4.57
2022-11-27T05:01:38.086Z,5.00
2022-11-27T05:02:40.686Z,5.00
2022-11-27T05:03:43.612Z,4.67
2022-11-27T05:04:46.447Z,3.43
2022-11-27T05:05:49.174Z,3.50
2022-11-27T05:06:52.075Z,4.00
2022-11-27T05:07:54.711Z,3.83
2022-11-27T05:08:57.421Z,3.67
2022-11-27T05:10:00.013Z,3.67
2022-11-27T05:11:03.024Z,3.50
2022-11-27T05:12:05.675Z,4.00
2022-11-27T05:13:08.354Z,4.00
2022-11-27T05:14:10.960Z,4.33
2022-11-27T05:15:13.536Z,4.00
2022-11-27T05:16:16.388Z,4.00
2022-11-27T05:17:19.089Z,4.00
2022-11-27T05:18:21.741Z,4.57
2022-11-27T05:19:24.326Z,4.33
2022-11-27T05:20:26.960Z,5.00
2022-11-27T05:21:29.602Z,5.00
2022-11-27T05:22:32.456Z,4.67
2022-11-27T05:23:35.189Z,4.67
2022-11-27T05:24:38.157Z,4.67
2022-11-27T05:25:41.111Z,4.00
2022-11-27T05:26:45.443Z,4.75
2022-11-27T05:27:48.328Z,3.71
2022-11-27T05:28:50.904Z,2.83
2022-11-27T05:29:53.490Z,5.00
2022-11-27T05:30:56.232Z,5.00
2022-11-27T05:32:00.561Z,4.86
2022-11-27T05:33:03.170Z,4.12
2022-11-27T05:34:05.784Z,4.83
2022-11-27T05:35:08.435Z,3.67
2022-11-27T05:36:11.057Z,4.67
2022-11-27T05:37:19.094Z,3.67
2022-11-27T05:38:17.749Z,4.00
2022-11-27T05:39:20.264Z,3.00
2022-11-27T05:40:22.976Z,3.83
2022-11-27T05:41:25.715Z,4.00
2022-11-27T05:42:28.653Z,3.86
2022-11-27T05:43:31.516Z,4.33
2022-11-27T05:44:34.422Z,5.00
2022-11-27T05:45:37.331Z,4.57
2022-11-27T05:46:40.323Z,4.00
2022-11-27T05:47:43.334Z,4.00
2022-11-27T05:48:46.185Z,3.86
2022-11-27T05:49:48.998Z,3.43
2022-11-27T05:50:51.798Z,4.00
2022-11-27T05:51:54.529Z,3.86
2022-11-27T05:52:57.424Z,3.67
2022-11-27T05:54:00.053Z,4.57
2022-11-27T05:55:02.685Z,3.33
2022-11-27T05:56:05.473Z,3.43
2022-11-27T05:57:08.342Z,4.00
2022-11-27T05:58:11.300Z,4.43
2022-11-27T05:59:14.313Z,4.57
2022-11-27T06:00:17.176Z,3.67
2022-11-27T06:01:20.071Z,3.67
2022-11-27T06:02:26.509Z,4.00
2022-11-27T06:03:27.203Z,4.00
2022-11-27T06:04:30.265Z,3.86
2022-11-27T06:05:33.103Z,4.17
2022-11-27T06:06:35.926Z,4.67
2022-11-27T06:07:38.708Z,3.71
2022-11-27T06:08:41.745Z,4.00
2022-11-27T06:09:44.742Z,4.00
2022-11-27T06:10:53.732Z,3.71
2022-11-27T06:11:56.477Z,3.62
2022-11-27T06:12:59.235Z,4.00
2022-11-27T06:14:01.982Z,3.67
2022-11-27T06:15:04.825Z,4.00
2022-11-27T06:16:08.067Z,4.33
2022-11-27T06:17:11.071Z,5.00
2022-11-27T06:18:13.664Z,5.67
2022-11-27T06:19:16.544Z,5.50
2022-11-27T06:20:19.408Z,6.67
2022-11-27T06:21:23.739Z,4.33
2022-11-27T06:22:36.001Z,2.00
2022-11-27T06:23:38.913Z,1.50
2022-11-27T06:24:42.213Z,1.00
2022-11-27T06:25:45.271Z,0.00
2022-11-27T06:26:48.207Z,0.43
2022-11-27T06:27:51.041Z,0.83
2022-11-27T06:28:54.004Z,1.43
2022-11-27T06:29:57.143Z,2.00
2022-11-27T06:30:59.684Z,2.00
2022-11-27T06:32:02.424Z,1.50
2022-11-27T06:33:05.216Z,2.00
2022-11-27T06:34:07.871Z,1.67
2022-11-27T06:35:11.253Z,2.67
2022-11-27T06:36:14.500Z,2.43
2022-11-27T06:37:17.391Z,3.43
2022-11-27T06:38:20.503Z,2.50
2022-11-27T06:39:23.429Z,2.86
2022-11-27T06:40:26.383Z,3.00
2022-11-27T06:41:29.207Z,2.00
2022-11-27T06:42:32.101Z,1.67
2022-11-27T06:43:34.922Z,2.50
2022-11-27T06:44:37.983Z,1.83
2022-11-27T06:45:41.181Z,2.57
2022-11-27T06:46:44.034Z,2.57
2022-11-27T06:47:46.862Z,3.00
2022-11-27T06:48:49.796Z,3.00
2022-11-27T06:49:52.760Z,3.00
2022-11-27T06:50:55.548Z,2.17
2022-11-27T06:51:58.152Z,3.43
2022-11-27T06:53:00.812Z,4.00
2022-11-27T06:54:03.724Z,3.33
2022-11-27T06:55:06.677Z,2.67
2022-11-27T06:56:09.348Z,4.00
2022-11-27T06:57:12.001Z,3.00
2022-11-27T06:58:14.675Z,2.00
2022-11-27T06:59:17.244Z,3.00
2022-11-27T07:00:19.915Z,4.00
2022-11-27T07:01:22.575Z,3.67
2022-11-27T07:02:25.234Z,3.33
2022-11-27T07:03:27.953Z,3.67
2022-11-27T07:04:30.614Z,3.67
2022-11-27T07:05:33.226Z,4.67
2022-11-27T07:06:35.802Z,3.67
2022-11-27T07:07:43.449Z,3.57
2022-11-27T07:08:42.324Z,3.43
2022-11-27T07:09:44.923Z,4.00
2022-11-27T07:10:47.500Z,4.67
2022-11-27T07:11:50.118Z,4.00
2022-11-27T07:12:52.703Z,4.50
2022-11-27T07:13:55.498Z,3.67
2022-11-27T07:15:01.661Z,4.43
2022-11-27T07:16:02.218Z,5.00
2022-11-27T07:17:05.172Z,5.00
2022-11-27T07:18:07.866Z,3.57
2022-11-27T07:19:10.608Z,3.00
2022-11-27T07:20:13.472Z,3.83
2022-11-27T07:21:16.339Z,3.83
2022-11-27T07:22:19.329Z,4.57
2022-11-27T07:23:22.064Z,5.17
2022-11-27T07:24:24.890Z,4.14
2022-11-27T07:25:27.758Z,4.33
2022-11-27T07:26:30.726Z,4.43
2022-11-27T07:27:33.649Z,5.00
2022-11-27T07:28:36.541Z,5.00
2022-11-27T07:29:39.485Z,4.67
2022-11-27T07:30:42.088Z,4.29
2022-11-27T07:31:45.028Z,4.50
2022-11-27T07:32:47.898Z,5.00
2022-11-27T07:33:50.842Z,5.00
2022-11-27T07:34:53.712Z,5.00
2022-11-27T07:35:56.412Z,4.57
2022-11-27T07:36:59.172Z,4.67
2022-11-27T07:38:01.942Z,4.17
2022-11-27T07:39:04.571Z,5.00
2022-11-27T07:40:07.156Z,4.00
2022-11-27T07:41:12.803Z,4.00
2022-11-27T07:42:38.001Z,4.50
2022-11-27T07:43:19.720Z,3.75
2022-11-27T07:44:22.674Z,3.86
2022-11-27T07:45:25.570Z,4.00
2022-11-27T07:46:28.469Z,4.00
2022-11-27T07:47:31.316Z,4.57
2022-11-27T07:48:34.442Z,5.33
2022-11-27T07:49:37.327Z,4.00
2022-11-27T07:50:40.216Z,3.86
2022-11-27T07:51:43.082Z,4.00
2022-11-27T07:52:45.930Z,4.00
2022-11-27T07:53:49.014Z,4.00
2022-11-27T07:54:51.968Z,4.33
2022-11-27T07:55:54.723Z,5.00
2022-11-27T07:56:57.461Z,4.67
2022-11-27T07:58:00.066Z,4.00
2022-11-27T07:59:02.688Z,3.50
2022-11-27T08:00:05.294Z,4.00
2022-11-27T08:01:08.053Z,3.83
2022-11-27T08:02:10.919Z,4.17
2022-11-27T08:03:13.922Z,5.00
2022-11-27T08:04:16.835Z,4.43
2022-11-27T08:05:19.795Z,4.00
2022-11-27T08:06:22.751Z,5.00
2022-11-27T08:07:25.640Z,4.86
2022-11-27T08:08:28.516Z,4.86
2022-11-27T08:09:31.369Z,6.00
2022-11-27T08:10:34.210Z,6.43
2022-11-27T08:11:37.125Z,7.00
2022-11-27T08:12:40.033Z,6.86
2022-11-27T08:13:42.818Z,6.67
2022-11-27T08:14:45.771Z,6.00
2022-11-27T08:15:48.398Z,6.00
2022-11-27T08:16:51.377Z,5.33
2022-11-27T08:17:54.294Z,4.57
2022-11-27T08:18:57.151Z,5.00
2022-11-27T08:19:59.883Z,5.00
2022-11-27T08:21:02.484Z,4.67
2022-11-27T08:22:05.193Z,4.67
2022-11-27T08:23:07.744Z,4.33
2022-11-27T08:24:10.368Z,4.33
2022-11-27T08:25:12.963Z,5.00
2022-11-27T08:26:15.564Z,4.67
2022-11-27T08:27:18.168Z,4.67
2022-11-27T08:28:20.863Z,4.33
2022-11-27T08:29:23.427Z,5.00
2022-11-27T08:30:26.240Z,4.67
2022-11-27T08:31:28.997Z,4.67
2022-11-27T08:32:31.631Z,4.14
2022-11-27T08:33:34.244Z,4.67
2022-11-27T08:34:36.893Z,4.67
2022-11-27T08:35:39.480Z,4.67
2022-11-27T08:36:42.302Z,3.67
2022-11-27T08:37:44.890Z,2.67
2022-11-27T08:38:47.601Z,2.33
2022-11-27T08:39:50.375Z,3.00
2022-11-27T08:40:58.023Z,3.00
2022-11-27T08:42:00.579Z,2.50
2022-11-27T08:43:03.115Z,2.00
2022-11-27T08:44:09.177Z,2.00
2022-11-27T08:45:09.454Z,2.00
2022-11-27T08:46:12.311Z,2.00
2022-11-27T08:47:15.201Z,2.00
2022-11-27T08:48:18.099Z,1.57
2022-11-27T08:49:20.991Z,1.33
2022-11-27T08:50:23.904Z,1.67
2022-11-27T08:51:27.271Z,1.33
2022-11-27T08:52:30.010Z,1.57
2022-11-27T08:53:32.920Z,1.00
2022-11-27T08:54:35.729Z,1.00
2022-11-27T08:55:38.629Z,1.00
2022-11-27T08:56:41.620Z,1.00
2022-11-27T08:57:44.533Z,1.00
2022-11-27T08:58:47.286Z,1.00
2022-11-27T08:59:50.180Z,1.33
2022-11-27T09:00:53.067Z,1.67
2022-11-27T09:01:56.226Z,0.67
2022-11-27T09:02:59.035Z,0.67
2022-11-27T09:04:01.660Z,1.43
2022-11-27T09:05:04.284Z,1.67
2022-11-27T09:06:06.844Z,1.00
2022-11-27T09:07:09.515Z,1.00
2022-11-27T09:08:12.369Z,1.00
2022-11-27T09:09:15.278Z,1.33
2022-11-27T09:10:18.180Z,2.00
2022-11-27T09:11:22.045Z,2.33
2022-11-27T09:12:24.701Z,2.14
2022-11-27T09:13:27.282Z,2.00
2022-11-27T09:14:29.971Z,2.00
2022-11-27T09:15:32.550Z,2.33
2022-11-27T09:16:35.313Z,2.67
2022-11-27T09:17:38.112Z,2.00
2022-11-27T09:18:40.687Z,2.00
2022-11-27T09:19:43.176Z,1.33
2022-11-27T09:20:45.932Z,2.00
2022-11-27T09:21:48.753Z,2.00
2022-11-27T09:22:51.771Z,1.67
2022-11-27T09:23:54.580Z,2.00
2022-11-27T09:24:57.401Z,1.67
2022-11-27T09:26:00.065Z,1.71
2022-11-27T09:27:02.643Z,2.00
2022-11-27T09:28:05.532Z,2.00
2022-11-27T09:29:08.134Z,2.00
2022-11-27T09:30:10.726Z,2.00
2022-11-27T09:31:13.603Z,2.00
2022-11-27T09:32:16.472Z,1.43
2022-11-27T09:33:19.197Z,0.33
2022-11-27T09:34:21.730Z,1.33
2022-11-27T09:35:24.489Z,2.00
2022-11-27T09:36:27.172Z,1.50
2022-11-27T09:37:29.780Z,2.00
2022-11-27T09:38:32.712Z,3.00
2022-11-27T09:39:35.409Z,3.00
2022-11-27T09:40:38.245Z,2.67
2022-11-27T09:41:41.126Z,1.83
2022-11-27T09:42:43.714Z,1.14
2022-11-27T09:43:46.275Z,1.33
2022-11-27T09:44:49.235Z,2.33
2022-11-27T09:45:51.889Z,3.00
2022-11-27T09:46:54.549Z,3.00
2022-11-27T09:47:57.107Z,3.33
2022-11-27T09:48:59.886Z,4.00
2022-11-27T09:50:02.491Z,3.14
2022-11-27T09:51:05.087Z,3.00
2022-11-27T09:52:07.747Z,2.67
2022-11-27T09:53:10.357Z,2.00
2022-11-27T09:54:13.315Z,2.00
2022-11-27T09:55:15.955Z,2.00
2022-11-27T09:56:18.602Z,2.00
2022-11-27T09:57:21.203Z,2.00
2022-11-27T09:58:23.744Z,2.00
2022-11-27T09:59:26.406Z,1.67
2022-11-27T10:00:28.996Z,1.33
2022-11-27T10:01:38.579Z,1.83
2022-11-27T10:02:35.568Z,2.43
2022-11-27T10:03:38.233Z,2.57
2022-11-27T10:05:05.821Z,2.33
2022-11-27T10:05:44.648Z,2.62
2022-11-27T10:06:47.392Z,3.00
2022-11-27T10:07:50.373Z,2.50
2022-11-27T10:08:53.277Z,2.43
2022-11-27T10:09:56.319Z,2.33
2022-11-27T10:10:59.096Z,2.67
2022-11-27T10:12:01.841Z,2.43
2022-11-27T10:13:04.424Z,2.17
2022-11-27T10:14:07.032Z,2.33
2022-11-27T10:15:09.738Z,3.00
2022-11-27T10:16:12.406Z,2.67
2022-11-27T10:17:15.317Z,3.00
2022-11-27T10:18:18.133Z,3.00
2022-11-27T10:19:20.953Z,2.83
2022-11-27T10:20:24.029Z,2.33
2022-11-27T10:21:27.040Z,3.33
2022-11-27T10:22:29.679Z,4.00
2022-11-27T10:23:32.521Z,3.67
2022-11-27T10:24:35.387Z,3.00
2022-11-27T10:25:38.375Z,3.00
2022-11-27T10:26:41.403Z,2.57
2022-11-27T10:27:44.217Z,2.00
2022-11-27T10:28:47.113Z,1.67
2022-11-27T10:29:50.444Z,1.43
2022-11-27T10:30:53.474Z,1.57
2022-11-27T10:31:56.338Z,1.67
2022-11-27T10:32:58.968Z,1.57
2022-11-27T10:34:01.640Z,2.00
2022-11-27T10:35:04.230Z,2.00
2022-11-27T10:36:06.981Z,2.00
2022-11-27T10:37:09.650Z,2.00
2022-11-27T10:38:12.275Z,2.00
2022-11-27T10:39:14.856Z,2.00
2022-11-27T10:40:17.447Z,2.00
2022-11-27T10:41:48.952Z,1.83
2022-11-27T10:42:24.073Z,1.00
2022-11-27T10:43:26.842Z,1.33
2022-11-27T10:44:29.439Z,2.00
2022-11-27T10:45:32.120Z,1.33
2022-11-27T10:46:34.844Z,0.67
2022-11-27T10:47:37.434Z,0.33
2022-11-27T10:48:40.099Z,0.67
2022-11-27T10:49:42.704Z,0.00
2022-11-27T10:50:45.304Z,0.00
2022-11-27T10:51:47.986Z,0.00
2022-11-27T10:52:52.552Z,0.00
2022-11-27T10:53:54.360Z,0.00
2022-11-27T10:54:56.900Z,0.33
2022-11-27T10:55:59.435Z,0.67
2022-11-27T10:57:01.964Z,0.00
2022-11-27T10:58:04.550Z,0.00
2022-11-27T10:59:07.087Z,0.00
2022-11-27T11:00:09.626Z,0.00
2022-11-27T11:01:12.180Z,0.00
2022-11-27T11:02:15.058Z,0.00
2022-11-27T11:03:17.621Z,0.43
2022-11-27T11:04:36.881Z,0.50
2022-11-27T11:05:40.897Z,0.00
2022-11-27T11:06:28.144Z,0.00
2022-11-27T11:07:31.092Z,0.00
2022-11-27T11:08:33.644Z,0.00
2022-11-27T11:09:36.290Z,0.00
2022-11-27T11:10:38.912Z,0.00
2022-11-27T11:11:41.641Z,0.00
2022-11-27T11:12:44.623Z,0.00
2022-11-27T11:13:47.374Z,0.00
2022-11-27T11:14:50.145Z,0.33
2022-11-27T11:15:52.975Z,0.43
2022-11-27T11:16:55.968Z,0.33
2022-11-27T11:17:58.801Z,0.14
2022-11-27T11:19:01.642Z,0.33
2022-11-27T11:20:04.238Z,0.67
2022-11-27T11:21:06.919Z,0.00
2022-11-27T11:22:13.222Z,0.33
2022-11-27T11:23:13.443Z,0.00
2022-11-27T11:24:16.279Z,0.00
2022-11-27T11:25:19.129Z,0.00
2022-11-27T11:26:21.912Z,0.00
2022-11-27T11:27:24.933Z,0.00
2022-11-27T11:28:28.002Z,0.00
2022-11-27T11:29:30.828Z,1.00
2022-11-27T11:30:33.758Z,0.57
2022-11-27T11:31:37.716Z,0.33
2022-11-27T11:32:40.406Z,0.50
2022-11-27T11:33:43.030Z,0.00
2022-11-27T11:34:45.688Z,0.00
2022-11-27T11:35:48.277Z,0.00
2022-11-27T11:36:50.870Z,0.00
2022-11-27T11:37:53.450Z,0.00
2022-11-27T11:38:56.020Z,0.00
2022-11-27T11:39:58.620Z,0.00
2022-11-27T11:41:01.378Z,0.33
2022-11-27T11:42:03.897Z,0.50
2022-11-27T11:43:06.444Z,0.00
2022-11-27T11:44:09.090Z,0.00
2022-11-27T11:45:11.756Z,0.00
2022-11-27T11:46:14.536Z,1.00
2022-11-27T11:47:17.412Z,0.50
2022-11-27T11:48:20.408Z,0.00
2022-11-27T11:49:23.402Z,0.00
2022-11-27T11:50:26.178Z,0.17
2022-11-27T11:51:29.518Z,0.57
2022-11-27T11:52:32.460Z,0.57
2022-11-27T11:53:35.269Z,0.00
2022-11-27T11:54:38.467Z,0.00
2022-11-27T11:55:41.530Z,0.00
2022-11-27T11:56:44.363Z,0.50
2022-11-27T11:57:47.238Z,0.00
2022-11-27T11:58:50.054Z,0.00
2022-11-27T11:59:52.879Z,0.00
2022-11-27T12:01:25.503Z,0.00
2022-11-27T12:01:59.834Z,0.00
2022-11-27T12:03:02.445Z,0.00
2022-11-27T12:04:05.147Z,0.00
2022-11-27T12:05:07.996Z,0.33
2022-11-27T12:06:10.570Z,0.67
2022-11-27T12:07:13.267Z,0.00
2022-11-27T12:08:16.306Z,0.00
2022-11-27T12:09:19.114Z,0.00
2022-11-27T12:10:22.162Z,0.00
2022-11-27T12:11:24.964Z,0.00
2022-11-27T12:12:27.854Z,0.43
2022-11-27T12:13:33.158Z,0.67
2022-11-27T12:14:34.742Z,0.50
2022-11-27T12:15:37.463Z,0.43
2022-11-27T12:16:40.257Z,1.00
2022-11-27T12:17:43.174Z,0.57
2022-11-27T12:18:46.047Z,0.00
2022-11-27T12:19:48.927Z,0.00
2022-11-27T12:20:51.958Z,0.00
2022-11-27T12:21:54.766Z,0.43
2022-11-27T12:22:57.561Z,1.00
2022-11-27T12:24:00.409Z,0.43
2022-11-27T12:25:03.085Z,0.33
2022-11-27T12:26:05.826Z,1.00
2022-11-27T12:27:08.465Z,1.00
2022-11-27T12:28:11.028Z,0.50
2022-11-27T12:29:13.741Z,0.33
2022-11-27T12:30:16.384Z,1.00
2022-11-27T12:31:19.123Z,0.67
2022-11-27T12:32:21.726Z,0.33
2022-11-27T12:33:24.286Z,1.00
2022-11-27T12:34:26.784Z,0.80
2022-11-27T12:35:29.290Z,0.33
2022-11-27T12:36:31.988Z,1.00
2022-11-27T12:37:34.613Z,1.00
2022-11-27T12:38:37.261Z,1.00
2022-11-27T12:39:39.897Z,1.00
2022-11-27T12:40:42.438Z,1.00
2022-11-27T12:41:45.088Z,1.33
2022-11-27T12:42:50.841Z,1.67
2022-11-27T12:43:53.477Z,1.75
2022-11-27T12:44:56.096Z,2.00
2022-11-27T12:45:58.702Z,1.67
2022-11-27T12:47:01.445Z,1.83
2022-11-27T12:48:04.186Z,2.17
2022-11-27T12:49:06.764Z,2.67
2022-11-27T12:50:09.299Z,2.00
2022-11-27T12:51:11.795Z,2.17
2022-11-27T12:52:14.587Z,3.00
2022-11-27T12:53:23.176Z,3.33
2022-11-27T12:54:21.315Z,3.57
2022-11-27T12:55:24.148Z,3.86
2022-11-27T12:56:26.981Z,5.00
2022-11-27T12:57:29.934Z,4.67
2022-11-27T12:58:32.787Z,4.33
2022-11-27T12:59:35.662Z,4.14
2022-11-27T13:00:38.532Z,5.00
2022-11-27T13:01:41.433Z,6.00
2022-11-27T13:02:44.363Z,5.67
2022-11-27T13:03:47.233Z,5.00
2022-11-27T13:04:50.164Z,4.67
2022-11-27T13:05:53.035Z,4.33
2022-11-27T13:06:55.897Z,5.33
2022-11-27T13:07:59.067Z,4.67
2022-11-27T13:09:01.705Z,4.00
2022-11-27T13:10:04.319Z,4.33
2022-11-27T13:11:06.937Z,4.67
2022-11-27T13:12:09.591Z,5.33
2022-11-27T13:13:12.336Z,5.67
2022-11-27T13:14:14.954Z,5.33
2022-11-27T13:15:17.573Z,5.33
2022-11-27T13:16:20.233Z,3.33
2022-11-27T13:17:22.819Z,3.67
2022-11-27T13:18:25.676Z,3.33
2022-11-27T13:19:28.216Z,3.67
2022-11-27T13:20:30.757Z,3.33
2022-11-27T13:21:33.300Z,4.00
2022-11-27T13:22:35.910Z,3.50
2022-11-27T13:23:38.579Z,3.67
2022-11-27T13:24:41.298Z,3.00
2022-11-27T13:25:43.924Z,3.00
2022-11-27T13:26:46.539Z,3.33
2022-11-27T13:27:53.991Z,3.33
2022-11-27T13:28:56.880Z,3.00
2022-11-27T13:30:01.153Z,2.67
2022-11-27T13:31:03.693Z,2.43
2022-11-27T13:32:06.408Z,3.17
2022-11-27T13:33:09.081Z,2.67
2022-11-27T13:34:11.725Z,2.67
2022-11-27T13:35:14.381Z,4.00
2022-11-27T13:36:16.996Z,3.67
2022-11-27T13:37:19.591Z,4.00
2022-11-27T13:38:22.201Z,4.33
2022-11-27T13:39:25.002Z,4.67
2022-11-27T13:40:27.560Z,4.00
2022-11-27T13:41:30.178Z,4.33
2022-11-27T13:42:32.714Z,4.33
2022-11-27T13:43:35.263Z,4.00
2022-11-27T13:44:38.245Z,3.67
2022-11-27T13:45:41.099Z,3.43
2022-11-27T13:46:43.652Z,4.00
2022-11-27T13:47:46.162Z,3.67
2022-11-27T13:48:48.705Z,3.33
2022-11-27T13:49:51.407Z,3.83
2022-11-27T13:50:54.091Z,3.83
2022-11-27T13:51:56.971Z,4.00
2022-11-27T13:52:59.744Z,3.33
2022-11-27T13:54:02.189Z,2.67
2022-11-27T13:55:05.036Z,4.00
2022-11-27T13:56:07.655Z,4.00
2022-11-27T13:57:10.253Z,3.67
2022-11-27T13:58:12.746Z,2.67